createdAt,value
2019-04-26T00:00:13.891Z,2.40
2019-04-26T00:01:13.853Z,2.20
2019-04-26T00:02:13.998Z,2.40
2019-04-26T00:03:14.194Z,1.90
2019-04-26T00:04:14.106Z,3.30
2019-04-26T00:05:14.381Z,2.60
2019-04-26T00:06:14.460Z,3.10
2019-04-26T00:07:13.592Z,2.10
2019-04-26T00:08:13.706Z,2.40
2019-04-26T00:09:13.722Z,1.90
2019-04-26T00:10:13.843Z,2.30
2019-04-26T00:11:13.938Z,3.10
2019-04-26T00:12:14.342Z,2.50
2019-04-26T00:13:14.254Z,2.00
2019-04-26T00:14:14.170Z,2.80
2019-04-26T00:15:13.226Z,2.40
2019-04-26T00:16:13.202Z,4.40
2019-04-26T00:17:13.426Z,3.00
2019-04-26T00:18:13.162Z,1.50
2019-04-26T00:19:13.795Z,1.70
2019-04-26T00:20:13.105Z,1.80
2019-04-26T00:21:14.006Z,2.70
2019-04-26T00:22:13.228Z,1.90
2019-04-26T00:23:14.082Z,2.40
2019-04-26T00:24:13.147Z,1.60
2019-04-26T00:25:12.984Z,2.10
2019-04-26T00:26:13.512Z,4.00
2019-04-26T00:27:12.936Z,3.40
2019-04-26T00:28:12.912Z,4.80
2019-04-26T00:29:12.887Z,4.20
2019-04-26T00:30:13.107Z,4.20
2019-04-26T00:31:12.890Z,2.50
2019-04-26T00:32:13.240Z,2.40
2019-04-26T00:33:13.534Z,2.60
2019-04-26T00:34:13.600Z,1.70
2019-04-26T00:35:13.950Z,2.80
2019-04-26T00:36:13.825Z,3.10
2019-04-26T00:37:14.043Z,3.50
2019-04-26T00:38:13.141Z,3.30
2019-04-26T00:39:13.399Z,1.90
2019-04-26T00:40:13.341Z,1.50
2019-04-26T00:41:12.757Z,2.70
2019-04-26T00:42:13.545Z,5.10
2019-04-26T00:43:12.866Z,2.50
2019-04-26T00:44:13.826Z,2.00
2019-04-26T00:45:13.587Z,2.60
2019-04-26T00:46:13.361Z,4.30
2019-04-26T00:47:13.663Z,2.50
2019-04-26T00:48:12.747Z,2.80
2019-04-26T00:49:12.617Z,2.80
2019-04-26T00:50:13.784Z,1.60
2019-04-26T00:51:12.805Z,2.90
2019-04-26T00:52:13.000Z,3.90
2019-04-26T00:53:13.316Z,4.30
2019-04-26T00:54:14.056Z,2.10
2019-04-26T00:55:14.150Z,4.10
2019-04-26T00:56:12.235Z,3.20
2019-04-26T00:57:12.211Z,3.30
2019-04-26T00:58:12.187Z,3.30
2019-04-26T00:59:12.163Z,2.20
2019-04-26T01:00:12.139Z,3.20
2019-04-26T01:01:12.116Z,2.40
2019-04-26T01:02:12.090Z,1.70
2019-04-26T01:03:12.067Z,1.60
2019-04-26T01:04:12.042Z,2.60
2019-04-26T01:05:12.018Z,2.30
2019-04-26T01:06:11.993Z,4.90
2019-04-26T01:07:12.020Z,5.00
2019-04-26T01:08:11.945Z,1.60
2019-04-26T01:09:11.921Z,2.90
2019-04-26T01:10:11.897Z,2.80
2019-04-26T01:11:11.872Z,2.70
2019-04-26T01:12:11.848Z,3.00
2019-04-26T01:13:11.826Z,1.70
2019-04-26T01:14:11.802Z,2.90
2019-04-26T01:15:11.777Z,3.80
2019-04-26T01:16:11.752Z,4.10
2019-04-26T01:17:11.728Z,2.00
2019-04-26T01:18:11.705Z,2.40
2019-04-26T01:19:11.682Z,3.60
2019-04-26T01:20:11.658Z,2.90
2019-04-26T01:21:11.631Z,3.10
2019-04-26T01:22:11.608Z,2.40
2019-04-26T01:23:11.584Z,4.20
2019-04-26T01:24:11.560Z,5.40
2019-04-26T01:25:11.536Z,4.50
2019-04-26T01:26:11.512Z,1.80
2019-04-26T01:27:11.488Z,3.20
2019-04-26T01:28:11.463Z,3.40
2019-04-26T01:29:11.438Z,2.20
2019-04-26T01:30:11.417Z,3.80
2019-04-26T01:31:11.394Z,1.90
2019-04-26T01:32:11.386Z,1.90
2019-04-26T01:33:11.343Z,3.60
2019-04-26T01:34:11.319Z,2.70
2019-04-26T01:35:11.296Z,2.40
2019-04-26T01:36:13.314Z,4.00
2019-04-26T01:37:11.251Z,5.40
2019-04-26T01:38:11.223Z,5.10
2019-04-26T01:39:11.198Z,3.30
2019-04-26T01:40:11.173Z,4.30
2019-04-26T01:41:11.150Z,2.90
2019-04-26T01:42:11.125Z,3.70
2019-04-26T01:43:11.102Z,3.60
2019-04-26T01:44:11.077Z,2.00
2019-04-26T01:45:11.053Z,4.60
2019-04-26T01:46:11.030Z,2.20
2019-04-26T01:47:11.007Z,3.30
2019-04-26T01:48:11.000Z,2.30
2019-04-26T01:49:10.955Z,2.90
2019-04-26T01:50:10.934Z,3.30
2019-04-26T01:51:10.908Z,3.50
2019-04-26T01:52:10.884Z,3.10
2019-04-26T01:53:10.860Z,2.70
2019-04-26T01:54:10.835Z,4.80
2019-04-26T01:55:10.811Z,5.90
2019-04-26T01:56:10.786Z,2.80
2019-04-26T01:57:10.762Z,2.10
2019-04-26T01:58:10.740Z,3.50
2019-04-26T01:59:10.714Z,4.10
2019-04-26T02:00:10.690Z,2.70
2019-04-26T02:01:10.665Z,3.20
2019-04-26T02:02:10.641Z,3.50
2019-04-26T02:03:10.616Z,3.10
2019-04-26T02:04:10.594Z,3.70
2019-04-26T02:05:10.568Z,2.30
2019-04-26T02:06:10.544Z,3.90
2019-04-26T02:07:10.519Z,4.20
2019-04-26T02:08:10.495Z,3.90
2019-04-26T02:09:10.480Z,4.00
2019-04-26T02:10:10.447Z,2.50
2019-04-26T02:11:10.424Z,5.00
2019-04-26T02:12:10.399Z,3.20
2019-04-26T02:13:10.375Z,3.20
2019-04-26T02:14:10.351Z,4.00
2019-04-26T02:15:10.330Z,4.70
2019-04-26T02:16:10.303Z,4.30
2019-04-26T02:17:10.277Z,2.90
2019-04-26T02:18:10.255Z,3.70
2019-04-26T02:19:10.229Z,3.60
2019-04-26T02:20:10.206Z,3.40
2019-04-26T02:21:10.181Z,3.80
2019-04-26T02:22:10.156Z,2.90
2019-04-26T02:23:10.131Z,4.90
2019-04-26T02:24:10.109Z,4.80
2019-04-26T02:25:10.083Z,4.80
2019-04-26T02:26:10.063Z,3.80
2019-04-26T02:27:10.035Z,3.50
2019-04-26T02:28:10.010Z,3.40
2019-04-26T02:29:09.986Z,5.00
2019-04-26T02:30:09.967Z,4.00
2019-04-26T02:31:09.939Z,3.20
2019-04-26T02:32:09.914Z,3.10
2019-04-26T02:33:09.890Z,4.20
2019-04-26T02:34:09.866Z,4.00
2019-04-26T02:35:09.846Z,4.80
2019-04-26T02:36:09.817Z,4.90
2019-04-26T02:37:09.794Z,4.20
2019-04-26T02:38:09.766Z,4.60
2019-04-26T02:39:09.745Z,3.70
2019-04-26T02:40:09.718Z,5.10
2019-04-26T02:41:09.699Z,8.80
2019-04-26T02:42:09.681Z,6.60
2019-04-26T02:43:09.649Z,5.80
2019-04-26T02:44:09.623Z,3.80
2019-04-26T02:45:09.597Z,6.50
2019-04-26T02:46:09.573Z,4.60
2019-04-26T02:47:09.555Z,4.80
2019-04-26T02:48:09.534Z,3.90
2019-04-26T02:49:09.503Z,5.80
2019-04-26T02:50:09.481Z,5.50
2019-04-26T02:51:09.454Z,4.40
2019-04-26T02:52:09.427Z,4.30
2019-04-26T02:53:09.404Z,4.90
2019-04-26T02:54:09.379Z,4.50
2019-04-26T02:55:09.357Z,9.00
2019-04-26T02:56:09.331Z,6.90
2019-04-26T02:57:09.307Z,6.00
2019-04-26T02:58:09.284Z,5.20
2019-04-26T02:59:09.259Z,5.00
2019-04-26T03:00:09.234Z,5.30
2019-04-26T03:01:09.212Z,6.20
2019-04-26T03:02:09.186Z,9.90
2019-04-26T03:03:09.163Z,7.00
2019-04-26T03:04:09.143Z,5.50
2019-04-26T03:05:09.115Z,7.10
2019-04-26T03:06:09.090Z,5.50
2019-04-26T03:07:09.080Z,7.90
2019-04-26T03:08:09.050Z,5.90
2019-04-26T03:09:09.047Z,6.30
2019-04-26T03:10:09.004Z,6.00
2019-04-26T03:11:08.968Z,7.00
2019-04-26T03:12:08.943Z,5.50
2019-04-26T03:13:08.921Z,5.50
2019-04-26T03:14:08.897Z,7.30
2019-04-26T03:15:13.943Z,6.10
2019-04-26T03:16:08.845Z,5.80
2019-04-26T03:17:08.825Z,5.10
2019-04-26T03:18:08.799Z,7.40
2019-04-26T03:19:08.774Z,6.80
2019-04-26T03:20:08.750Z,5.80
2019-04-26T03:21:08.723Z,5.40
2019-04-26T03:22:08.702Z,8.00
2019-04-26T03:23:08.678Z,6.80
2019-04-26T03:24:08.652Z,10.90
2019-04-26T03:25:08.629Z,9.00
2019-04-26T03:26:08.605Z,8.80
2019-04-26T03:27:08.586Z,6.90
2019-04-26T03:28:08.555Z,6.60
2019-04-26T03:29:08.531Z,9.60
2019-04-26T03:30:19.889Z,8.10
2019-04-26T03:31:08.498Z,9.50
2019-04-26T03:32:08.476Z,6.80
2019-04-26T03:33:08.524Z,6.60
2019-04-26T03:34:08.720Z,6.50
2019-04-26T03:35:08.421Z,8.50
2019-04-26T03:36:08.381Z,7.40
2019-04-26T03:37:20.398Z,9.10
2019-04-26T03:38:08.314Z,7.70
2019-04-26T03:39:08.293Z,8.80
2019-04-26T03:40:08.266Z,6.80
2019-04-26T03:41:08.241Z,9.60
2019-04-26T03:42:08.221Z,8.40
2019-04-26T03:43:08.193Z,8.50
2019-04-26T03:44:08.171Z,7.00
2019-04-26T03:45:08.145Z,9.90
2019-04-26T03:46:08.121Z,7.80
2019-04-26T03:47:08.098Z,9.10
2019-04-26T03:48:08.072Z,9.40
2019-04-26T03:49:08.050Z,8.70
2019-04-26T03:50:08.024Z,9.30
2019-04-26T03:51:07.999Z,9.30
2019-04-26T03:52:07.979Z,8.10
2019-04-26T03:53:07.950Z,7.50
2019-04-26T03:54:07.928Z,8.10
2019-04-26T03:55:07.904Z,8.10
2019-04-26T03:56:07.877Z,7.60
2019-04-26T03:57:07.855Z,8.10
2019-04-26T03:58:07.833Z,7.00
2019-04-26T03:59:07.807Z,6.30
2019-04-26T04:00:07.784Z,5.20
2019-04-26T04:01:07.760Z,6.80
2019-04-26T04:02:07.735Z,9.90
2019-04-26T04:03:07.709Z,6.30
2019-04-26T04:04:07.686Z,8.00
2019-04-26T04:05:07.663Z,5.50
2019-04-26T04:06:07.637Z,11.00
2019-04-26T04:07:07.615Z,9.60
2019-04-26T04:08:07.591Z,6.90
2019-04-26T04:09:07.577Z,7.90
2019-04-26T04:10:07.545Z,5.50
2019-04-26T04:11:07.522Z,8.30
2019-04-26T04:12:11.841Z,7.60
2019-04-26T04:13:07.470Z,8.50
2019-04-26T04:14:07.524Z,9.20
2019-04-26T04:15:07.420Z,9.80
2019-04-26T04:16:07.394Z,13.80
2019-04-26T04:17:07.372Z,10.50
2019-04-26T04:18:07.348Z,7.60
2019-04-26T04:19:07.324Z,8.30
2019-04-26T04:20:07.300Z,7.60
2019-04-26T04:21:07.288Z,6.10
2019-04-26T04:22:07.255Z,11.00
2019-04-26T04:23:07.227Z,7.50
2019-04-26T04:24:07.205Z,8.50
2019-04-26T04:25:07.179Z,6.20
2019-04-26T04:26:07.154Z,7.30
2019-04-26T04:27:07.130Z,8.20
2019-04-26T04:28:07.105Z,6.10
2019-04-26T04:29:07.083Z,12.10
2019-04-26T04:30:07.058Z,12.20
2019-04-26T04:31:07.034Z,13.00
2019-04-26T04:32:07.008Z,6.40
2019-04-26T04:33:06.986Z,7.90
2019-04-26T04:34:06.963Z,10.90
2019-04-26T04:35:07.024Z,6.30
2019-04-26T04:36:06.910Z,8.50
2019-04-26T04:37:06.888Z,8.80
2019-04-26T04:38:09.444Z,7.50
2019-04-26T04:39:12.385Z,8.20
2019-04-26T04:40:06.816Z,6.80
2019-04-26T04:41:08.546Z,9.60
2019-04-26T04:42:06.767Z,8.40
2019-04-26T04:43:06.920Z,7.20
2019-04-26T04:44:06.730Z,11.40
2019-04-26T04:45:06.696Z,10.10
2019-04-26T04:46:06.824Z,6.70
2019-04-26T04:47:22.620Z,8.30
2019-04-26T04:48:06.624Z,12.50
2019-04-26T04:49:06.603Z,14.40
2019-04-26T04:50:06.575Z,10.50
2019-04-26T04:51:06.564Z,10.70
2019-04-26T04:52:06.527Z,9.70
2019-04-26T04:53:06.507Z,11.40
2019-04-26T04:54:06.478Z,13.30
2019-04-26T04:55:07.928Z,10.30
2019-04-26T04:56:06.447Z,8.00
2019-04-26T04:57:06.409Z,9.50
2019-04-26T04:58:06.387Z,7.80
2019-04-26T04:59:06.363Z,6.60
2019-04-26T05:00:06.337Z,7.70
2019-04-26T05:01:06.311Z,6.60
2019-04-26T05:02:06.290Z,6.40
2019-04-26T05:03:06.265Z,5.60
2019-04-26T05:04:06.242Z,9.50
2019-04-26T05:05:06.217Z,8.30
2019-04-26T05:06:07.596Z,7.60
2019-04-26T05:07:06.171Z,6.40
2019-04-26T05:08:07.096Z,8.10
2019-04-26T05:09:06.125Z,7.70
2019-04-26T05:10:06.100Z,7.60
2019-04-26T05:11:06.077Z,7.20
2019-04-26T05:12:06.052Z,7.90
2019-04-26T05:13:06.029Z,9.40
2019-04-26T05:14:06.008Z,6.10
2019-04-26T05:15:05.984Z,7.10
2019-04-26T05:16:05.960Z,10.10
2019-04-26T05:17:05.938Z,8.50
2019-04-26T05:18:05.915Z,5.90
2019-04-26T05:19:05.895Z,8.20
2019-04-26T05:20:05.872Z,7.60
2019-04-26T05:21:05.847Z,7.60
2019-04-26T05:22:05.826Z,8.00
2019-04-26T05:23:05.806Z,8.50
2019-04-26T05:24:05.782Z,8.00
2019-04-26T05:25:05.760Z,5.80
2019-04-26T05:26:05.738Z,6.90
2019-04-26T05:27:05.718Z,7.00
2019-04-26T05:28:05.696Z,6.50
2019-04-26T05:29:05.674Z,8.40
2019-04-26T05:30:05.655Z,7.50
2019-04-26T05:31:05.633Z,6.80
2019-04-26T05:32:05.611Z,8.90
2019-04-26T05:33:05.592Z,5.60
2019-04-26T05:34:05.570Z,5.30
2019-04-26T05:35:05.552Z,6.70
2019-04-26T05:36:05.530Z,6.80
2019-04-26T05:37:05.511Z,8.50
2019-04-26T05:38:17.776Z,10.10
2019-04-26T05:39:05.471Z,9.90
2019-04-26T05:40:05.451Z,10.00
2019-04-26T05:41:05.432Z,9.20
2019-04-26T05:42:05.410Z,9.80
2019-04-26T05:43:05.391Z,7.80
2019-04-26T05:44:05.369Z,9.80
2019-04-26T05:45:05.349Z,6.90
2019-04-26T05:46:05.330Z,6.50
2019-04-26T05:47:05.310Z,8.70
2019-04-26T05:48:11.606Z,8.70
2019-04-26T05:49:05.269Z,8.00
2019-04-26T05:50:05.250Z,11.20
2019-04-26T05:51:05.227Z,8.50
2019-04-26T05:52:05.207Z,7.20
2019-04-26T05:53:05.185Z,8.30
2019-04-26T05:54:05.166Z,10.80
2019-04-26T05:55:05.145Z,7.40
2019-04-26T05:56:05.123Z,10.50
2019-04-26T05:57:05.102Z,11.20
2019-04-26T05:58:05.082Z,7.80
2019-04-26T05:59:05.063Z,9.10
2019-04-26T06:00:05.043Z,6.20
2019-04-26T06:01:05.021Z,10.70
2019-04-26T06:02:05.013Z,7.20
2019-04-26T06:03:04.985Z,9.30
2019-04-26T06:04:04.964Z,9.70
2019-04-26T06:05:04.946Z,8.30
2019-04-26T06:06:05.488Z,7.60
2019-04-26T06:07:04.909Z,7.50
2019-04-26T06:08:04.891Z,8.30
2019-04-26T06:09:04.875Z,9.30
2019-04-26T06:10:04.861Z,7.70
2019-04-26T06:11:04.841Z,8.30
2019-04-26T06:12:04.823Z,6.40
2019-04-26T06:13:04.807Z,6.90
2019-04-26T06:14:04.792Z,8.30
2019-04-26T06:15:04.775Z,8.70
2019-04-26T06:16:04.757Z,9.20
2019-04-26T06:17:04.743Z,9.20
2019-04-26T06:18:04.725Z,6.00
2019-04-26T06:19:04.709Z,9.80
2019-04-26T06:20:04.693Z,13.70
2019-04-26T06:21:04.679Z,12.80
2019-04-26T06:22:04.663Z,9.30
2019-04-26T06:23:04.647Z,12.00
2019-04-26T06:24:04.631Z,15.10
2019-04-26T06:25:04.617Z,9.20
2019-04-26T06:26:04.767Z,7.80
2019-04-26T06:27:13.556Z,7.90
2019-04-26T06:28:04.573Z,8.10
2019-04-26T06:29:05.333Z,9.50
2019-04-26T06:30:04.544Z,11.80
2019-04-26T06:31:04.530Z,9.20
2019-04-26T06:32:04.701Z,7.40
2019-04-26T06:33:06.194Z,7.70
2019-04-26T06:34:04.481Z,7.80
2019-04-26T06:35:04.467Z,8.10
2019-04-26T06:36:04.505Z,10.30
2019-04-26T06:37:04.439Z,7.20
2019-04-26T06:38:04.423Z,10.00
2019-04-26T06:39:04.408Z,8.60
2019-04-26T06:40:04.500Z,8.50
2019-04-26T06:41:04.447Z,8.70
2019-04-26T06:42:05.095Z,9.10
2019-04-26T06:43:05.142Z,8.90
2019-04-26T06:44:04.768Z,9.50
2019-04-26T06:45:04.742Z,7.80
2019-04-26T06:46:04.728Z,7.60
2019-04-26T06:47:04.299Z,9.10
2019-04-26T06:48:04.281Z,14.80
2019-04-26T06:49:05.453Z,9.10
2019-04-26T06:50:05.324Z,7.90
2019-04-26T06:51:04.900Z,10.40
2019-04-26T06:52:05.064Z,9.10
2019-04-26T06:53:04.212Z,9.40
2019-04-26T06:54:04.198Z,9.20
2019-04-26T06:55:04.341Z,9.00
2019-04-26T06:56:05.048Z,8.70
2019-04-26T06:57:11.578Z,8.50
2019-04-26T06:58:04.890Z,8.20
2019-04-26T06:59:04.131Z,10.90
2019-04-26T07:00:04.436Z,6.60
2019-04-26T07:01:05.333Z,7.30
2019-04-26T07:02:04.092Z,7.40
2019-04-26T07:03:04.079Z,12.40
2019-04-26T07:04:04.222Z,10.30
2019-04-26T07:05:04.804Z,6.70
2019-04-26T07:06:04.508Z,8.00
2019-04-26T07:07:04.615Z,7.10
2019-04-26T07:08:05.090Z,8.30
2019-04-26T07:09:04.010Z,6.40
2019-04-26T07:10:04.137Z,7.30
2019-04-26T07:11:04.801Z,11.60
2019-04-26T07:12:05.119Z,12.50
2019-04-26T07:13:04.009Z,13.80
2019-04-26T07:14:04.772Z,7.30
2019-04-26T07:15:03.923Z,6.30
2019-04-26T07:16:17.939Z,6.20
2019-04-26T07:17:04.589Z,8.90
2019-04-26T07:18:04.377Z,8.40
2019-04-26T07:19:03.868Z,8.20
2019-04-26T07:20:04.532Z,8.80
2019-04-26T07:21:04.545Z,7.60
2019-04-26T07:22:04.096Z,5.50
2019-04-26T07:23:03.811Z,7.40
2019-04-26T07:24:03.974Z,6.90
2019-04-26T07:25:03.789Z,5.20
2019-04-26T07:26:03.855Z,6.60
2019-04-26T07:27:04.987Z,5.90
2019-04-26T07:28:09.013Z,7.70
2019-04-26T07:29:04.697Z,8.00
2019-04-26T07:30:05.080Z,5.60
2019-04-26T07:31:04.094Z,9.40
2019-04-26T07:32:03.684Z,7.20
2019-04-26T07:33:04.170Z,7.50
2019-04-26T07:34:03.656Z,10.50
2019-04-26T07:35:04.616Z,9.30
2019-04-26T07:36:03.844Z,8.00
2019-04-26T07:37:04.626Z,11.40
2019-04-26T07:38:04.743Z,9.10
2019-04-26T07:39:13.738Z,9.70
2019-04-26T07:40:03.576Z,7.90
2019-04-26T07:41:03.555Z,6.70
2019-04-26T07:42:03.541Z,7.10
2019-04-26T07:43:03.529Z,9.10
2019-04-26T07:44:03.823Z,7.10
2019-04-26T07:45:03.764Z,10.40
2019-04-26T07:46:04.060Z,7.90
2019-04-26T07:47:04.137Z,8.90
2019-04-26T07:48:03.455Z,7.20
2019-04-26T07:49:04.195Z,8.10
2019-04-26T07:50:04.045Z,8.10
2019-04-26T07:51:04.367Z,4.90
2019-04-26T07:52:04.328Z,6.40
2019-04-26T07:53:04.977Z,5.30
2019-04-26T07:54:03.923Z,4.90
2019-04-26T07:55:04.824Z,7.50
2019-04-26T07:56:03.869Z,7.30
2019-04-26T07:57:04.538Z,6.40
2019-04-26T07:58:04.002Z,6.40
2019-04-26T07:59:05.570Z,6.70
2019-04-26T08:00:04.246Z,5.40
2019-04-26T08:01:04.036Z,7.40
2019-04-26T08:02:03.755Z,5.10
2019-04-26T08:03:04.172Z,7.30
2019-04-26T08:04:03.994Z,5.50
2019-04-26T08:05:04.483Z,5.30
2019-04-26T08:06:04.555Z,6.40
2019-04-26T08:07:04.855Z,5.40
2019-04-26T08:08:04.226Z,4.90
2019-04-26T08:09:04.462Z,8.00
2019-04-26T08:10:04.476Z,4.90
2019-04-26T08:11:04.418Z,4.00
2019-04-26T08:12:04.449Z,3.70
2019-04-26T08:13:04.442Z,5.20
2019-04-26T08:14:04.630Z,4.80
2019-04-26T08:15:04.607Z,4.10
2019-04-26T08:16:04.872Z,4.90
2019-04-26T08:17:04.820Z,5.00
2019-04-26T08:18:03.859Z,5.00
2019-04-26T08:19:03.963Z,7.30
2019-04-26T08:20:06.620Z,3.20
2019-04-26T08:21:06.945Z,6.90
2019-04-26T08:22:14.940Z,4.50
2019-04-26T08:23:09.053Z,3.50
2019-04-26T08:24:02.981Z,7.60
2019-04-26T08:25:02.967Z,5.00
2019-04-26T08:26:02.956Z,4.60
2019-04-26T08:27:13.422Z,3.70
2019-04-26T08:28:02.930Z,4.80
2019-04-26T08:29:02.918Z,4.70
2019-04-26T08:30:03.485Z,5.30
2019-04-26T08:31:04.764Z,6.80
2019-04-26T08:32:02.879Z,2.70
2019-04-26T08:33:07.790Z,8.20
2019-04-26T08:34:02.856Z,7.40
2019-04-26T08:35:08.272Z,6.50
2019-04-26T08:36:02.829Z,5.00
2019-04-26T08:37:03.233Z,5.20
2019-04-26T08:38:08.254Z,6.20
2019-04-26T08:39:02.792Z,4.40
2019-04-26T08:40:02.779Z,5.70
2019-04-26T08:41:04.930Z,3.10
2019-04-26T08:42:02.754Z,3.70
2019-04-26T08:43:02.740Z,11.10
2019-04-26T08:44:03.626Z,6.70
2019-04-26T08:45:04.409Z,4.60
2019-04-26T08:46:03.494Z,4.40
2019-04-26T08:47:05.989Z,3.50
2019-04-26T08:48:02.676Z,5.20
2019-04-26T08:49:06.122Z,4.00
2019-04-26T08:50:02.652Z,5.00
2019-04-26T08:51:02.638Z,4.30
2019-04-26T08:52:13.953Z,3.00
2019-04-26T08:53:02.612Z,6.40
2019-04-26T08:54:02.600Z,6.10
2019-04-26T08:55:02.588Z,2.70
2019-04-26T08:56:02.577Z,2.90
2019-04-26T08:57:02.562Z,3.20
2019-04-26T08:58:02.556Z,3.90
2019-04-26T08:59:02.537Z,6.20
2019-04-26T09:00:02.524Z,4.30
2019-04-26T09:01:02.511Z,4.70
2019-04-26T09:02:02.500Z,3.70
2019-04-26T09:03:11.370Z,3.30
2019-04-26T09:04:02.474Z,8.30
2019-04-26T09:05:02.462Z,3.00
2019-04-26T09:06:02.458Z,3.50
2019-04-26T09:07:02.438Z,3.70
2019-04-26T09:08:03.940Z,4.90
2019-04-26T09:09:02.412Z,3.40
2019-04-26T09:10:10.746Z,5.30
2019-04-26T09:11:02.388Z,6.40
2019-04-26T09:12:03.946Z,3.80
2019-04-26T09:13:02.364Z,4.60
2019-04-26T09:14:02.355Z,3.80
2019-04-26T09:15:02.340Z,4.30
2019-04-26T09:16:02.414Z,4.70
2019-04-26T09:17:02.316Z,4.40
2019-04-26T09:18:02.305Z,5.30
2019-04-26T09:19:02.292Z,3.70
2019-04-26T09:20:07.202Z,4.50
2019-04-26T09:21:02.268Z,4.30
2019-04-26T09:22:12.463Z,4.70
2019-04-26T09:23:04.889Z,5.50
2019-04-26T09:24:02.243Z,3.40
2019-04-26T09:25:02.232Z,5.10
2019-04-26T09:26:02.229Z,4.40
2019-04-26T09:27:02.197Z,3.10
2019-04-26T09:28:02.184Z,5.30
2019-04-26T09:29:02.173Z,4.70
2019-04-26T09:30:04.931Z,3.90
2019-04-26T09:31:02.151Z,4.70
2019-04-26T09:32:02.137Z,3.70
2019-04-26T09:33:03.031Z,4.70
2019-04-26T09:34:02.113Z,4.70
2019-04-26T09:35:02.104Z,6.30
2019-04-26T09:36:02.094Z,6.00
2019-04-26T09:37:02.077Z,7.00
2019-04-26T09:38:02.068Z,6.00
2019-04-26T09:39:03.854Z,4.40
2019-04-26T09:40:10.078Z,4.90
2019-04-26T09:41:02.032Z,5.60
2019-04-26T09:42:05.966Z,4.60
2019-04-26T09:43:02.734Z,3.90
2019-04-26T09:44:01.997Z,5.90
2019-04-26T09:45:01.989Z,5.00
2019-04-26T09:46:02.027Z,4.70
2019-04-26T09:47:01.964Z,5.80
2019-04-26T09:48:01.953Z,5.20
2019-04-26T09:49:03.031Z,5.60
2019-04-26T09:50:01.931Z,3.90
2019-04-26T09:51:01.920Z,4.50
2019-04-26T09:52:01.908Z,7.70
2019-04-26T09:53:01.900Z,4.70
2019-04-26T09:54:01.886Z,4.80
2019-04-26T09:55:01.876Z,4.20
2019-04-26T09:56:01.862Z,8.30
2019-04-26T09:57:01.851Z,5.00
2019-04-26T09:58:01.840Z,5.20
2019-04-26T09:59:05.702Z,8.80
2019-04-26T10:00:01.818Z,6.50
2019-04-26T10:01:01.806Z,5.20
2019-04-26T10:02:01.794Z,4.00
2019-04-26T10:03:01.783Z,4.00
2019-04-26T10:04:01.771Z,4.20
2019-04-26T10:05:01.759Z,5.00
2019-04-26T10:06:01.749Z,5.50
2019-04-26T10:07:03.267Z,8.20
2019-04-26T10:08:01.725Z,4.90
2019-04-26T10:09:01.714Z,7.00
2019-04-26T10:10:01.703Z,4.70
2019-04-26T10:11:01.692Z,6.70
2019-04-26T10:12:01.679Z,5.70
2019-04-26T10:13:01.671Z,6.10
2019-04-26T10:14:01.656Z,5.30
2019-04-26T10:15:01.647Z,3.20
2019-04-26T10:16:02.513Z,5.10
2019-04-26T10:17:01.624Z,6.40
2019-04-26T10:18:01.611Z,8.00
2019-04-26T10:19:01.599Z,3.90
2019-04-26T10:20:01.588Z,5.80
2019-04-26T10:21:01.577Z,5.30
2019-04-26T10:22:01.565Z,4.60
2019-04-26T10:23:01.553Z,3.90
2019-04-26T10:24:01.542Z,3.80
2019-04-26T10:25:02.503Z,4.70
2019-04-26T10:26:01.520Z,4.20
2019-04-26T10:27:03.503Z,4.70
2019-04-26T10:28:01.500Z,7.40
2019-04-26T10:29:01.483Z,5.20
2019-04-26T10:30:07.616Z,7.00
2019-04-26T10:31:01.462Z,5.10
2019-04-26T10:32:01.448Z,5.50
2019-04-26T10:33:02.285Z,4.70
2019-04-26T10:34:01.425Z,7.30
2019-04-26T10:35:01.412Z,3.70
2019-04-26T10:36:01.401Z,5.10
2019-04-26T10:37:05.764Z,4.50
2019-04-26T10:38:01.377Z,4.10
2019-04-26T10:39:01.373Z,4.50
2019-04-26T10:40:01.358Z,5.40
2019-04-26T10:41:01.341Z,3.80
2019-04-26T10:42:01.335Z,3.20
2019-04-26T10:43:01.315Z,6.20
2019-04-26T10:44:01.302Z,4.10
2019-04-26T10:45:01.291Z,5.10
2019-04-26T10:46:01.280Z,5.30
2019-04-26T10:47:04.380Z,3.60
2019-04-26T10:48:01.255Z,8.60
2019-04-26T10:49:08.497Z,5.30
2019-04-26T10:50:01.231Z,3.10
2019-04-26T10:51:03.262Z,4.40
2019-04-26T10:52:01.207Z,5.10
2019-04-26T10:53:01.193Z,5.40
2019-04-26T10:54:01.768Z,5.40
2019-04-26T10:55:01.170Z,6.90
2019-04-26T10:56:01.161Z,5.20
2019-04-26T10:57:01.145Z,5.30
2019-04-26T10:58:01.133Z,5.40
2019-04-26T10:59:01.120Z,4.60
2019-04-26T11:00:01.106Z,5.30
2019-04-26T11:01:01.094Z,4.50
2019-04-26T11:02:01.082Z,3.60
2019-04-26T11:03:04.554Z,6.00
2019-04-26T11:04:01.057Z,6.70
2019-04-26T11:05:01.043Z,6.30
2019-04-26T11:06:01.031Z,6.10
2019-04-26T11:07:02.013Z,3.60
2019-04-26T11:08:01.008Z,9.20
2019-04-26T11:09:00.997Z,6.60
2019-04-26T11:10:02.955Z,4.50
2019-04-26T11:11:00.967Z,6.40
2019-04-26T11:12:00.954Z,3.90
2019-04-26T11:13:00.942Z,3.60
2019-04-26T11:14:00.927Z,4.80
2019-04-26T11:15:00.915Z,5.40
2019-04-26T11:16:02.464Z,4.60
2019-04-26T11:17:00.889Z,4.20
2019-04-26T11:18:00.876Z,4.90
2019-04-26T11:19:01.141Z,4.00
2019-04-26T11:20:00.854Z,5.70
2019-04-26T11:21:00.836Z,6.70
2019-04-26T11:22:00.823Z,5.00
2019-04-26T11:23:00.810Z,4.80
2019-04-26T11:24:00.800Z,6.10
2019-04-26T11:25:00.784Z,5.30
2019-04-26T11:26:01.594Z,6.50
2019-04-26T11:27:00.759Z,7.00
2019-04-26T11:28:00.743Z,5.00
2019-04-26T11:29:00.733Z,8.30
2019-04-26T11:30:11.149Z,8.40
2019-04-26T11:31:00.703Z,3.30
2019-04-26T11:32:02.755Z,8.80
2019-04-26T11:33:00.674Z,7.50
2019-04-26T11:34:05.296Z,5.60
2019-04-26T11:35:00.745Z,4.20
2019-04-26T11:36:03.408Z,5.30
2019-04-26T11:37:00.619Z,4.80
2019-04-26T11:38:00.667Z,4.40
2019-04-26T11:39:01.266Z,4.10
2019-04-26T11:40:00.576Z,4.70
2019-04-26T11:41:06.328Z,5.60
2019-04-26T11:42:00.548Z,11.60
2019-04-26T11:43:00.535Z,3.30
2019-04-26T11:44:00.520Z,4.00
2019-04-26T11:45:06.302Z,7.10
2019-04-26T11:46:04.512Z,4.40
2019-04-26T11:47:03.235Z,4.00
2019-04-26T11:48:03.135Z,4.00
2019-04-26T11:49:03.144Z,3.20
2019-04-26T11:50:00.529Z,5.50
2019-04-26T11:51:00.420Z,4.80
2019-04-26T11:52:02.809Z,5.20
2019-04-26T11:53:00.389Z,4.90
2019-04-26T11:54:00.376Z,7.60
2019-04-26T11:55:00.367Z,4.10
2019-04-26T11:56:04.498Z,8.50
2019-04-26T11:57:00.331Z,4.90
2019-04-26T11:58:00.317Z,8.00
2019-04-26T11:59:00.303Z,8.20
2019-04-26T12:00:01.446Z,4.10
2019-04-26T12:01:00.275Z,5.70
2019-04-26T12:02:00.258Z,4.70
2019-04-26T12:03:00.243Z,3.80
2019-04-26T12:04:00.813Z,6.90
2019-04-26T12:05:00.214Z,5.80
2019-04-26T12:06:00.198Z,6.90
2019-04-26T12:07:00.185Z,7.50
2019-04-26T12:08:00.168Z,5.50
2019-04-26T12:09:00.158Z,5.60
2019-04-26T12:10:00.139Z,5.70
2019-04-26T12:11:00.137Z,5.10
2019-04-26T12:12:04.668Z,6.80
2019-04-26T12:13:05.780Z,5.50
2019-04-26T12:14:00.557Z,5.70
2019-04-26T12:15:04.014Z,5.80
2019-04-26T12:16:00.048Z,5.70
2019-04-26T12:17:01.326Z,5.50
2019-04-26T12:18:00.044Z,5.40
2019-04-26T12:19:00.001Z,3.70
2019-04-26T12:19:59.989Z,4.60
2019-04-26T12:21:01.103Z,4.60
2019-04-26T12:21:59.954Z,6.30
2019-04-26T12:22:59.940Z,5.90
2019-04-26T12:23:59.924Z,4.30
2019-04-26T12:25:03.350Z,6.70
2019-04-26T12:25:59.893Z,5.80
2019-04-26T12:26:59.923Z,8.00
2019-04-26T12:28:01.834Z,3.90
2019-04-26T12:28:59.847Z,5.80
2019-04-26T12:29:59.831Z,6.00
2019-04-26T12:31:00.216Z,7.30
2019-04-26T12:31:59.813Z,5.20
2019-04-26T12:32:59.785Z,5.10
2019-04-26T12:33:59.769Z,3.40
2019-04-26T12:34:59.754Z,4.40
2019-04-26T12:35:59.739Z,3.50
2019-04-26T12:36:59.723Z,7.00
2019-04-26T12:37:59.709Z,5.40
2019-04-26T12:39:02.219Z,4.40
2019-04-26T12:39:59.678Z,5.60
2019-04-26T12:40:59.664Z,4.00
2019-04-26T12:41:59.645Z,8.70
2019-04-26T12:42:59.629Z,7.70
2019-04-26T12:44:03.093Z,5.40
2019-04-26T12:44:59.598Z,6.60
2019-04-26T12:45:59.583Z,4.90
2019-04-26T12:47:03.661Z,5.60
2019-04-26T12:47:59.559Z,4.60
2019-04-26T12:48:59.535Z,3.60
2019-04-26T12:50:00.498Z,4.10
2019-04-26T12:50:59.503Z,3.60
2019-04-26T12:51:59.485Z,5.10
2019-04-26T12:52:59.470Z,3.80
2019-04-26T12:53:59.455Z,2.70
2019-04-26T12:54:59.440Z,4.70
2019-04-26T12:55:59.422Z,4.90
2019-04-26T12:57:01.556Z,2.80
2019-04-26T12:57:59.391Z,5.40
2019-04-26T12:58:59.375Z,3.50
2019-04-26T13:00:01.940Z,3.00
2019-04-26T13:00:59.343Z,5.00
2019-04-26T13:02:05.971Z,3.00
2019-04-26T13:02:59.311Z,7.10
2019-04-26T13:04:02.602Z,3.80
2019-04-26T13:04:59.280Z,4.60
2019-04-26T13:05:59.336Z,4.20
2019-04-26T13:07:02.354Z,3.80
2019-04-26T13:07:59.231Z,4.50
2019-04-26T13:08:59.215Z,5.80
2019-04-26T13:10:01.052Z,4.00
2019-04-26T13:10:59.184Z,4.30
2019-04-26T13:11:59.166Z,5.70
2019-04-26T13:12:59.153Z,4.50
2019-04-26T13:13:59.139Z,6.90
2019-04-26T13:14:59.120Z,4.00
2019-04-26T13:15:59.103Z,2.50